Search for airport 
image banner adimage banner adimage banner ad
image banner ad

90CA - Fowler's

Located in Linden, United States

ICAO - 90CA, IATA -

Data provided by Airmate  

General information

Coordinates: N38°0'13" W121°7'7"
Elevation is 77 feet MSL.
Magnetic variation is 16° East
View others Airports in California

Operational data

Special qualification required
Current time UTC:
Current local time:
Weather at : KSCK - Stockton Metropolitan ( 16 km )
METAR: KSCK 210855Z 35009KT 10SM CLR 17/13 A2981 RMK AO2 SLP094 T01670128 51008
TAF: KSCK 210520Z 2106/2206 31012KT P6SM SKC
View NOTAMs / SUP AIP / TFR affecting this airport [VIEW]
Communications frequencies: [VIEW]

Runways:

RWY identifierQFULength (ft)Width (ft)SurfaceLDA (ft)
17180060GRASS
35180060GRASS

Airport contact information

Address: Linden United States

Satellite view of 90CA